Impacts TAF Board INFO
FOR SITUATIONAL AWARENESS. NOT TO BE USED FOR FLIGHT PLANNING PURPOSES.
IDs:

KDEN - Denver Intl, CO, US

Issued at 1350 UTC 26 Apr 2018
Updated at 1715 UTC 26 Apr 2018
Potential Impact None Slight Moderate High
Time1653Z 26/18Z 26/19Z 26/20Z 26/21Z 26/22Z 26/23Z 27/00Z 27/01Z 27/02Z 27/03Z 27/04Z 27/05Z 27/06Z>>
Type OBS PRVL PRVL PRVL PRVL PRVL PRVL PRVL PRVL PRVL PRVL PRVL PRVL PRVL
VIS 10 >6 >6 >6 >6 >6 >6 >6 >6 >6 >6 >6 >6 >6
CIG 70 70 70 70 70 70 -- -- -- -- -- -- -- --
Cover OVC BKN BKN BKN BKN BKN SCT SCT SCT FEW FEW FEW FEW FEW
FltCat VFR VFR VFR VFR VFR VFR VFR VFR VFR VFR VFR VFR VFR VFR
WX -- -- -- -- -- -- -- -- -- -- -- -- -- --
WDir 20 20 20 20 20 20 30 30 30 140 140 140 140 140
WSpd 16 14 14 14 14 14 10 10 10 7 7 7 7 7
WGst 23 22 22 22 22 22 -- -- -- -- -- -- -- --

Raw TAF
KDEN 261350Z 2614/2718 36020G30KT P6SM SCT080 BKN100
  FM261500 01016G26KT P6SM SCT035 BKN070
  FM261800 02014G22KT P6SM SCT045 BKN070
  FM262300 03010KT P6SM SCT050
  FM270200 14007KT P6SM FEW200
  FM270700 20008KT P6SM FEW200


Raw METAR
KDEN 261653Z 02016G23KT 10SM FEW044 BKN070 OVC095 11/M02 A3029 RMK AO2 PK WND 01028/1600 SLP219 T01061017
KDEN 261553Z 01019G25KT 10SM SCT055 BKN080 BKN120 10/M01 A3028 RMK AO2 PK WND 01028/1454 SLP220 T01001011
KDEN 261453Z 01021KT 10SM SCT055 BKN080 08/M01 A3027 RMK AO2 PK WND 36032/1408 SLP226 VIRGA W T00831011 53029

METAR Board
Radar Display
Forecast Discussion

FOR SITUATIONAL AWARENESS. NOT TO BE USED FOR FLIGHT PLANNING PURPOSES.